Time;durP1;ratioP1;P1;durP2;ratioP2;P2;SDS_P1;SDS_P2;PMS_P1;PMS_P2;Temp;Humidity;BMP_temperature;BMP_pressure;BME280_temperature;BME280_humidity;BME280_pressure;Samples;Min_cycle;Max_cycle;Signal;HPM_P1;HPM_P2
2021/01/27 00:00:37;;;;;;;13.85;10.15;;;;;;;;;;5128145;27;20077;-59
2021/01/27 00:03:03;;;;;;;14.65;10.40;;;;;;;;;;5129885;27;20429;-59
2021/01/27 00:05:31;;;;;;;15.95;11.10;;;;;;;;;;5129419;27;20042;-59
2021/01/27 00:07:57;;;;;;;16.15;11.73;;;;;;;;;;5130186;27;20035;-59
2021/01/27 00:10:23;;;;;;;13.50;10.73;;;;;;;;;;5129536;27;20057;-59
2021/01/27 00:12:49;;;;;;;13.40;10.50;;;;;;;;;;5129905;27;20035;-59
2021/01/27 00:15:18;;;;;;;13.88;11.13;;;;;;;;;;5128324;27;20096;-59
2021/01/27 00:17:44;;;;;;;15.77;11.02;;;;;;;;;;5129976;27;20084;-59
2021/01/27 00:20:11;;;;;;;16.17;9.80;;;;;;;;;;5129739;27;20039;-59
2021/01/27 00:22:37;;;;;;;14.00;10.77;;;;;;;;;;5130135;27;20629;-59
2021/01/27 00:25:05;;;;;;;16.17;10.38;;;;;;;;;;5131866;27;20040;-59
2021/01/27 00:27:30;;;;;;;14.95;9.65;;;;;;;;;;5130722;27;20066;-60
2021/01/27 00:29:56;;;;;;;14.60;9.75;;;;;;;;;;5131961;27;20058;-59
2021/01/27 00:32:21;;;;;;;16.30;10.52;;;;;;;;;;5112913;27;20451;-59
2021/01/27 00:34:47;;;;;;;15.43;10.25;;;;;;;;;;5131624;27;20055;-60
2021/01/27 00:37:12;;;;;;;14.60;9.35;;;;;;;;;;5131900;27;20078;-60
2021/01/27 00:39:37;;;;;;;13.85;9.38;;;;;;;;;;5131551;27;20030;-60
2021/01/27 00:42:03;;;;;;;12.25;9.85;;;;;;;;;;5131401;27;20027;-60
2021/01/27 00:44:29;;;;;;;13.68;8.80;;;;;;;;;;5130230;27;20039;-59
2021/01/27 00:46:54;;;;;;;16.55;9.75;;;;;;;;;;5113792;27;20580;-60
2021/01/27 00:49:19;;;;;;;12.18;9.18;;;;;;;;;;5131421;27;20728;-59
2021/01/27 00:51:45;;;;;;;13.85;8.70;;;;;;;;;;5131313;27;20135;-60
2021/01/27 00:54:10;;;;;;;14.20;8.73;;;;;;;;;;5132312;27;20034;-60
2021/01/27 00:56:35;;;;;;;11.23;8.02;;;;;;;;;;5131955;27;20131;-59
2021/01/27 00:59:01;;;;;;;14.45;8.80;;;;;;;;;;5131549;27;20110;-60
2021/01/27 01:01:26;;;;;;;12.88;9.07;;;;;;;;;;5132041;27;20038;-60
2021/01/27 01:03:51;;;;;;;11.05;8.02;;;;;;;;;;5132327;27;20039;-60
2021/01/27 01:06:17;;;;;;;13.52;9.07;;;;;;;;;;5132327;27;20059;-59
2021/01/27 01:08:42;;;;;;;13.50;8.75;;;;;;;;;;5129771;27;20153;-60
2021/01/27 01:11:07;;;;;;;14.02;7.93;;;;;;;;;;5132079;27;20046;-59
2021/01/27 01:13:33;;;;;;;12.27;8.25;;;;;;;;;;5132060;27;20031;-59
2021/01/27 01:15:59;;;;;;;14.60;9.25;;;;;;;;;;5130991;27;20023;-60
2021/01/27 01:18:25;;;;;;;16.95;9.02;;;;;;;;;;5131857;27;20027;-59
2021/01/27 01:20:51;;;;;;;13.05;8.45;;;;;;;;;;5130929;27;20092;-59
2021/01/27 01:23:19;;;;;;;28.60;8.88;;;;;;;;;;5132219;27;20475;-59
2021/01/27 01:25:44;;;;;;;12.98;8.25;;;;;;;;;;5128751;27;20042;-59
2021/01/27 01:28:09;;;;;;;12.18;8.27;;;;;;;;;;5131806;27;20039;-59
2021/01/27 01:30:37;;;;;;;14.65;7.75;;;;;;;;;;5129864;27;20087;-59
2021/01/27 01:33:18;;;;;;;15.38;9.23;;;;;;;;;;5132048;27;20038;-59
2021/01/27 01:35:43;;;;;;;11.30;8.23;;;;;;;;;;5112194;27;20039;-59
2021/01/27 01:38:10;;;;;;;13.13;8.88;;;;;;;;;;5132083;27;20628;-59
2021/01/27 01:40:38;;;;;;;11.15;8.05;;;;;;;;;;5130601;27;20039;-59
2021/01/27 01:43:10;;;;;;;11.43;7.50;;;;;;;;;;5130995;27;20038;-59
2021/01/27 01:45:41;;;;;;;20.23;8.30;;;;;;;;;;5130468;27;20122;-59
2021/01/27 01:48:29;;;;;;;12.35;8.55;;;;;;;;;;5131544;27;20058;-59
2021/01/27 01:51:01;;;;;;;15.07;8.20;;;;;;;;;;5129704;27;20062;-59
2021/01/27 01:53:27;;;;;;;16.90;8.70;;;;;;;;;;5130068;27;20035;-59
2021/01/27 01:55:56;;;;;;;12.77;8.55;;;;;;;;;;5131165;27;20043;-59
2021/01/27 01:58:22;;;;;;;18.40;8.80;;;;;;;;;;5130198;27;20054;-59
2021/01/27 02:00:51;;;;;;;13.95;8.95;;;;;;;;;;5130425;27;20058;-59
2021/01/27 02:03:17;;;;;;;13.07;7.18;;;;;;;;;;5130435;27;20039;-59
2021/01/27 02:05:43;;;;;;;11.65;8.02;;;;;;;;;;5130616;27;20484;-59
2021/01/27 02:08:09;;;;;;;14.32;8.20;;;;;;;;;;5131269;27;20371;-59
2021/01/27 02:10:34;;;;;;;10.10;7.78;;;;;;;;;;5128710;27;20042;-60
2021/01/27 02:13:08;;;;;;;13.00;7.78;;;;;;;;;;5131192;27;20106;-59
2021/01/27 02:15:43;;;;;;;11.55;7.75;;;;;;;;;;5130527;27;20062;-59
2021/01/27 02:18:47;;;;;;;9.63;7.47;;;;;;;;;;5128509;27;20031;-59
2021/01/27 02:21:22;;;;;;;12.77;8.00;;;;;;;;;;5129972;27;20050;-59
2021/01/27 02:24:22;;;;;;;11.75;7.40;;;;;;;;;;5130981;27;20646;-59
2021/01/27 02:26:50;;;;;;;13.15;7.70;;;;;;;;;;5129412;27;20043;-60
2021/01/27 02:29:34;;;;;;;10.77;7.72;;;;;;;;;;5130657;27;20139;-60
2021/01/27 02:32:32;;;;;;;10.93;7.43;;;;;;;;;;5130760;27;20035;-59
2021/01/27 02:35:09;;;;;;;11.43;7.53;;;;;;;;;;5130512;27;20035;-59
2021/01/27 02:38:00;;;;;;;10.30;6.55;;;;;;;;;;5129743;27;20050;-60
2021/01/27 02:40:31;;;;;;;9.87;6.13;;;;;;;;;;5129870;27;20046;-59
2021/01/27 02:43:05;;;;;;;12.98;7.13;;;;;;;;;;5112197;27;20035;-60
2021/01/27 02:45:35;;;;;;;10.02;6.55;;;;;;;;;;5128447;27;20126;-60
2021/01/27 02:48:10;;;;;;;10.35;6.15;;;;;;;;;;5127907;27;20512;-60
2021/01/27 02:50:51;;;;;;;12.48;7.65;;;;;;;;;;5129415;27;20046;-59
2021/01/27 02:53:27;;;;;;;10.20;7.53;;;;;;;;;;5128519;27;20039;-59
2021/01/27 02:56:01;;;;;;;12.00;6.57;;;;;;;;;;5129923;27;20031;-60
2021/01/27 02:58:35;;;;;;;11.65;7.35;;;;;;;;;;5129885;27;20027;-60
2021/01/27 03:01:14;;;;;;;10.25;6.82;;;;;;;;;;5126815;27;20114;-60
2021/01/27 03:03:44;;;;;;;8.85;6.43;;;;;;;;;;5129710;27;20468;-59
2021/01/27 03:06:16;;;;;;;11.07;6.50;;;;;;;;;;5129735;27;20084;-59
2021/01/27 03:08:51;;;;;;;11.88;7.10;;;;;;;;;;5130023;27;20034;-60
2021/01/27 03:11:23;;;;;;;10.63;6.88;;;;;;;;;;5128898;27;20039;-59
2021/01/27 03:13:49;;;;;;;11.77;7.00;;;;;;;;;;5137054;27;20058;-59
2021/01/27 03:16:19;;;;;;;9.98;6.32;;;;;;;;;;5135369;27;20122;-59
2021/01/27 03:18:51;;;;;;;8.75;6.40;;;;;;;;;;5136070;27;20030;-59
2021/01/27 03:21:20;;;;;;;11.32;6.28;;;;;;;;;;5136678;27;20456;-59
2021/01/27 03:23:50;;;;;;;10.43;6.70;;;;;;;;;;5135489;27;20364;-59
2021/01/27 03:26:36;;;;;;;9.07;6.18;;;;;;;;;;5136718;27;20404;-59
2021/01/27 03:29:08;;;;;;;9.40;6.03;;;;;;;;;;5131836;27;20026;-60
2021/01/27 03:31:33;;;;;;;11.93;6.55;;;;;;;;;;5130555;27;20058;-60
2021/01/27 03:34:09;;;;;;;7.97;5.70;;;;;;;;;;5117667;27;20062;-59
2021/01/27 03:36:39;;;;;;;10.95;7.05;;;;;;;;;;5136462;27;20034;-59
2021/01/27 03:39:05;;;;;;;9.82;6.38;;;;;;;;;;5135066;27;20035;-60
2021/01/27 03:41:38;;;;;;;14.35;7.25;;;;;;;;;;5135120;27;20031;-60
2021/01/27 03:44:25;;;;;;;11.80;6.03;;;;;;;;;;5136038;27;20050;-60
2021/01/27 03:46:59;;;;;;;12.68;5.68;;;;;;;;;;5135818;27;20035;-59
2021/01/27 03:49:30;;;;;;;9.25;6.15;;;;;;;;;;5135170;27;20340;-59
2021/01/27 03:52:09;;;;;;;10.98;7.10;;;;;;;;;;5136370;27;20041;-60
2021/01/27 03:54:37;;;;;;;13.45;7.40;;;;;;;;;;5136462;27;20470;-60
2021/01/27 03:57:14;;;;;;;16.30;7.07;;;;;;;;;;5134114;27;20039;-59
2021/01/27 03:59:39;;;;;;;10.00;6.22;;;;;;;;;;5135120;27;20152;-60
2021/01/27 04:02:14;;;;;;;14.70;7.03;;;;;;;;;;5136917;27;20518;-60
2021/01/27 04:04:39;;;;;;;15.98;7.82;;;;;;;;;;5136323;27;20046;-60
2021/01/27 04:07:05;;;;;;;9.85;7.03;;;;;;;;;;5135816;27;20086;-59
2021/01/27 04:09:30;;;;;;;11.63;6.72;;;;;;;;;;5136772;27;20031;-59
2021/01/27 04:11:55;;;;;;;9.30;5.75;;;;;;;;;;5136691;27;20053;-59
2021/01/27 04:14:21;;;;;;;9.50;6.70;;;;;;;;;;5136811;27;20122;-60
2021/01/27 04:16:46;;;;;;;9.27;6.38;;;;;;;;;;5134990;27;20059;-60
2021/01/27 04:19:11;;;;;;;9.43;6.45;;;;;;;;;;5136685;27;20532;-60
2021/01/27 04:21:37;;;;;;;12.68;6.53;;;;;;;;;;5136257;27;20031;-60
2021/01/27 04:24:03;;;;;;;13.07;6.50;;;;;;;;;;5131021;27;20066;-60
2021/01/27 04:26:29;;;;;;;13.88;6.97;;;;;;;;;;5130499;27;20027;-60
2021/01/27 04:28:54;;;;;;;13.82;6.78;;;;;;;;;;5133034;27;20080;-60
2021/01/27 04:31:19;;;;;;;9.55;5.90;;;;;;;;;;5131871;27;20038;-60
2021/01/27 04:33:45;;;;;;;9.27;6.60;;;;;;;;;;5132537;27;20595;-60
2021/01/27 04:36:11;;;;;;;12.07;5.85;;;;;;;;;;5132834;27;20039;-60
2021/01/27 04:38:37;;;;;;;13.48;6.63;;;;;;;;;;5132957;27;20024;-60
2021/01/27 04:41:03;;;;;;;8.55;5.95;;;;;;;;;;5132954;27;20031;-60
2021/01/27 04:43:33;;;;;;;8.88;5.90;;;;;;;;;;5113320;27;20054;-60
2021/01/27 04:46:12;;;;;;;10.93;6.45;;;;;;;;;;5132752;27;20104;-60
2021/01/27 04:48:48;;;;;;;8.65;5.72;;;;;;;;;;5132258;27;20035;-60
2021/01/27 04:51:20;;;;;;;10.23;6.00;;;;;;;;;;5132260;27;20027;-60
2021/01/27 04:54:08;;;;;;;9.02;5.43;;;;;;;;;;5132387;27;20402;-60
2021/01/27 04:56:42;;;;;;;12.10;5.85;;;;;;;;;;5132099;27;20039;-60
2021/01/27 04:59:18;;;;;;;7.75;5.45;;;;;;;;;;5130728;27;20461;-60
2021/01/27 05:02:12;;;;;;;9.23;5.72;;;;;;;;;;5132524;27;20114;-60
2021/01/27 05:05:08;;;;;;;9.02;5.88;;;;;;;;;;5131888;27;20026;-60
2021/01/27 05:08:17;;;;;;;7.85;5.72;;;;;;;;;;5132079;27;20038;-61
2021/01/27 05:11:02;;;;;;;10.38;5.30;;;;;;;;;;5074671;27;20047;-60
2021/01/27 05:13:37;;;;;;;9.48;5.80;;;;;;;;;;5118932;27;20046;-60
2021/01/27 05:16:19;;;;;;;9.35;5.78;;;;;;;;;;5115494;27;20030;-60
2021/01/27 05:18:45;;;;;;;9.50;5.55;;;;;;;;;;5117265;27;20038;-60
2021/01/27 05:21:33;;;;;;;13.60;6.20;;;;;;;;;;5116926;27;20035;-60
2021/01/27 05:23:59;;;;;;;9.57;5.97;;;;;;;;;;5123926;27;20039;-60
2021/01/27 05:26:42;;;;;;;7.22;5.20;;;;;;;;;;5129601;27;20035;-60
2021/01/27 05:29:16;;;;;;;9.07;5.95;;;;;;;;;;5128094;27;20061;-60
2021/01/27 05:31:56;;;;;;;11.95;6.60;;;;;;;;;;5128917;27;20452;-60
2021/01/27 05:34:31;;;;;;;8.95;5.63;;;;;;;;;;5130462;27;20050;-60
2021/01/27 05:36:57;;;;;;;9.30;6.50;;;;;;;;;;5128388;27;20054;-60
2021/01/27 05:39:28;;;;;;;10.60;6.10;;;;;;;;;;5129482;27;20352;-60
2021/01/27 05:42:28;;;;;;;8.32;6.05;;;;;;;;;;5130272;27;20521;-60
2021/01/27 05:44:56;;;;;;;9.88;6.07;;;;;;;;;;5116241;27;20091;-60
2021/01/27 05:47:35;;;;;;;12.55;5.90;;;;;;;;;;5130432;27;20045;-60
2021/01/27 05:50:15;;;;;;;9.60;5.85;;;;;;;;;;5129427;27;20050;-60
2021/01/27 05:52:41;;;;;;;10.40;6.60;;;;;;;;;;5131018;27;20031;-60
2021/01/27 05:55:08;;;;;;;12.10;6.07;;;;;;;;;;5131011;27;20042;-60
2021/01/27 05:57:34;;;;;;;12.57;6.53;;;;;;;;;;5131277;27;20039;-60
2021/01/27 06:00:24;;;;;;;14.52;6.68;;;;;;;;;;5129037;27;20060;-60
2021/01/27 06:02:50;;;;;;;9.07;5.80;;;;;;;;;;5100137;27;20042;-59
2021/01/27 06:05:20;;;;;;;8.45;5.50;;;;;;;;;;5118916;27;20031;-60
2021/01/27 06:07:45;;;;;;;11.43;5.65;;;;;;;;;;5124788;27;20035;-60
2021/01/27 06:10:37;;;;;;;9.15;5.35;;;;;;;;;;5130511;27;20038;-60
2021/01/27 06:13:15;;;;;;;9.07;6.43;;;;;;;;;;5126214;27;20500;-60
2021/01/27 06:15:40;;;;;;;11.70;6.43;;;;;;;;;;5112464;27;20126;-59
2021/01/27 06:18:19;;;;;;;11.55;6.53;;;;;;;;;;5129459;27;20125;-59
2021/01/27 06:20:45;;;;;;;8.30;6.20;;;;;;;;;;5130645;27;20054;-59
2021/01/27 06:23:46;;;;;;;9.13;6.10;;;;;;;;;;5131138;27;20359;-60
2021/01/27 06:26:42;;;;;;;8.68;6.28;;;;;;;;;;5128076;27;20035;-60
2021/01/27 06:29:11;;;;;;;13.27;6.63;;;;;;;;;;5128485;27;20043;-59
2021/01/27 06:32:14;;;;;;;10.13;6.32;;;;;;;;;;5112252;27;20038;-59
2021/01/27 06:35:00;;;;;;;9.32;6.13;;;;;;;;;;5111739;27;20525;-60
2021/01/27 06:37:40;;;;;;;12.18;6.30;;;;;;;;;;5111796;27;20060;-59
2021/01/27 06:40:24;;;;;;;9.25;5.53;;;;;;;;;;5129235;27;20077;-59
2021/01/27 06:43:17;;;;;;;9.50;6.07;;;;;;;;;;5129095;27;20463;-59
2021/01/27 06:46:10;;;;;;;9.73;6.57;;;;;;;;;;5130646;27;20474;-59
2021/01/27 06:49:03;;;;;;;9.73;6.75;;;;;;;;;;5128430;27;20035;-60
2021/01/27 06:52:06;;;;;;;13.45;6.28;;;;;;;;;;5130310;27;20042;-60
2021/01/27 06:54:50;;;;;;;10.55;7.22;;;;;;;;;;5129128;27;20061;-59
2021/01/27 06:57:40;;;;;;;12.95;7.07;;;;;;;;;;5126175;27;20038;-60
2021/01/27 07:00:37;;;;;;;13.68;6.93;;;;;;;;;;5127622;27;20083;-59
2021/01/27 07:03:27;;;;;;;10.10;6.90;;;;;;;;;;5108217;28;20276;-59
2021/01/27 07:06:23;;;;;;;10.68;7.00;;;;;;;;;;5127412;27;20039;-59
2021/01/27 07:09:18;;;;;;;9.80;6.65;;;;;;;;;;5129326;27;20452;-60
2021/01/27 07:12:10;;;;;;;15.40;7.72;;;;;;;;;;5130148;27;20058;-59
2021/01/27 07:15:17;;;;;;;11.73;7.68;;;;;;;;;;5129814;27;20456;-59
2021/01/27 07:18:08;;;;;;;12.38;7.50;;;;;;;;;;5128489;27;20047;-59
2021/01/27 07:20:38;;;;;;;12.20;7.35;;;;;;;;;;5130430;27;20023;-59
2021/01/27 07:23:20;;;;;;;12.17;7.10;;;;;;;;;;5128500;27;20034;-60
2021/01/27 07:26:08;;;;;;;15.55;8.05;;;;;;;;;;5128619;27;20035;-60
2021/01/27 07:28:41;;;;;;;12.20;8.63;;;;;;;;;;5129631;27;20050;-59
2021/01/27 07:31:29;;;;;;;12.18;7.25;;;;;;;;;;5108791;28;20176;-60
2021/01/27 07:34:03;;;;;;;11.52;7.80;;;;;;;;;;5127973;27;20073;-59
2021/01/27 07:36:35;;;;;;;18.67;9.35;;;;;;;;;;5127256;27;20361;-59
2021/01/27 07:39:09;;;;;;;13.02;8.70;;;;;;;;;;5127070;27;20023;-59
2021/01/27 07:42:12;;;;;;;16.88;10.63;;;;;;;;;;5128270;27;20031;-59
2021/01/27 07:44:41;;;;;;;13.43;9.25;;;;;;;;;;5121595;27;20077;-59
2021/01/27 07:47:34;;;;;;;13.98;8.43;;;;;;;;;;5127922;27;20067;-59
2021/01/27 07:50:00;;;;;;;16.38;7.85;;;;;;;;;;5111664;28;20686;-59
2021/01/27 07:53:00;;;;;;;16.55;9.38;;;;;;;;;;5130064;27;20145;-59
2021/01/27 07:55:38;;;;;;;14.82;8.25;;;;;;;;;;5071771;27;20031;-59
2021/01/27 07:58:17;;;;;;;12.68;8.90;;;;;;;;;;5128345;27;20078;-59
2021/01/27 08:00:56;;;;;;;18.10;8.10;;;;;;;;;;5127249;27;20482;-59
2021/01/27 08:03:40;;;;;;;14.38;9.15;;;;;;;;;;5127376;27;20027;-58
2021/01/27 08:06:10;;;;;;;17.17;8.95;;;;;;;;;;5131961;27;20031;-59
2021/01/27 08:08:47;;;;;;;14.82;9.52;;;;;;;;;;5129813;27;20035;-59
2021/01/27 08:11:18;;;;;;;14.05;9.43;;;;;;;;;;5132157;27;20031;-59
2021/01/27 08:13:44;;;;;;;13.90;9.30;;;;;;;;;;5133358;27;20047;-58
2021/01/27 08:16:15;;;;;;;15.02;9.38;;;;;;;;;;5133543;27;20045;-58
2021/01/27 08:19:11;;;;;;;19.10;10.48;;;;;;;;;;5132907;27;20031;-58
2021/01/27 08:21:46;;;;;;;11.73;8.98;;;;;;;;;;5132355;27;20050;-58
2021/01/27 08:24:33;;;;;;;14.52;8.95;;;;;;;;;;5132293;27;20074;-59
2021/01/27 08:27:17;;;;;;;11.55;9.27;;;;;;;;;;5129051;27;20096;-58
2021/01/27 08:29:54;;;;;;;14.00;8.95;;;;;;;;;;5133620;27;20031;-58
2021/01/27 08:32:25;;;;;;;13.10;8.15;;;;;;;;;;5133469;27;20455;-59
2021/01/27 08:34:56;;;;;;;15.98;8.27;;;;;;;;;;5130934;27;20107;-59
2021/01/27 08:37:40;;;;;;;;;;;;;;;;;;5132754;27;20118;-58
2021/01/27 08:40:21;;;;;;;14.45;8.15;;;;;;;;;;5131618;27;19907;-58
2021/01/27 08:42:52;;;;;;;14.45;7.68;;;;;;;;;;5132516;27;20031;-58
2021/01/27 08:45:38;;;;;;;16.67;7.88;;;;;;;;;;5131286;27;20118;-59
2021/01/27 08:48:05;;;;;;;22.25;10.77;;;;;;;;;;5130155;27;20049;-58
2021/01/27 08:50:52;;;;;;;16.73;8.75;;;;;;;;;;5113168;27;20133;-58
2021/01/27 08:53:48;;;;;;;14.55;9.30;;;;;;;;;;5131000;27;20050;-58
2021/01/27 08:56:13;;;;;;;10.70;8.82;;;;;;;;;;5132003;27;20050;-59
2021/01/27 08:58:39;;;;;;;14.05;9.32;;;;;;;;;;5129276;27;20031;-59
2021/01/27 09:01:10;;;;;;;14.85;9.20;;;;;;;;;;5122742;27;20126;-59
2021/01/27 09:03:47;;;;;;;11.30;8.02;;;;;;;;;;5127461;27;20058;-59
2021/01/27 09:06:21;;;;;;;15.75;9.40;;;;;;;;;;5125958;27;20027;-59
2021/01/27 09:08:48;;;;;;;11.43;9.07;;;;;;;;;;5127044;27;20046;-59
2021/01/27 09:11:17;;;;;;;16.35;8.63;;;;;;;;;;5109739;27;20046;-59
2021/01/27 09:13:45;;;;;;;14.02;8.90;;;;;;;;;;5125532;27;20035;-59
2021/01/27 09:16:19;;;;;;;14.77;9.18;;;;;;;;;;5126414;27;20114;-59
2021/01/27 09:18:55;;;;;;;12.57;8.32;;;;;;;;;;5125893;27;20106;-59
2021/01/27 09:21:22;;;;;;;13.82;8.40;;;;;;;;;;5127453;27;20039;-59
2021/01/27 09:23:56;;;;;;;19.63;9.45;;;;;;;;;;5129417;27;20114;-59
2021/01/27 09:26:30;;;;;;;12.18;8.80;;;;;;;;;;5128756;27;20114;-59
2021/01/27 09:29:06;;;;;;;12.13;8.00;;;;;;;;;;5129072;27;20050;-60
2021/01/27 09:31:31;;;;;;;12.65;9.20;;;;;;;;;;5129334;27;20051;-59
2021/01/27 09:33:58;;;;;;;10.80;8.43;;;;;;;;;;5110423;27;20584;-60
2021/01/27 09:36:27;;;;;;;12.45;8.95;;;;;;;;;;5129139;27;20035;-61
2021/01/27 09:38:54;;;;;;;10.73;8.27;;;;;;;;;;5129057;27;20038;-60
2021/01/27 09:41:25;;;;;;;10.95;7.72;;;;;;;;;;5129174;27;20107;-60
2021/01/27 09:43:51;;;;;;;10.65;6.97;;;;;;;;;;5126774;27;20047;-60
2021/01/27 09:46:26;;;;;;;11.55;8.07;;;;;;;;;;5127182;27;20108;-60
2021/01/27 09:48:54;;;;;;;26.40;16.05;;;;;;;;;;5118866;27;20027;-60
2021/01/27 09:51:21;;;;;;;13.73;9.32;;;;;;;;;;5122741;27;20037;-60
2021/01/27 09:53:47;;;;;;;11.15;8.15;;;;;;;;;;5125300;27;20145;-60
2021/01/27 09:56:16;;;;;;;10.88;7.68;;;;;;;;;;5126512;27;20035;-61
2021/01/27 09:58:43;;;;;;;11.32;7.60;;;;;;;;;;5125619;27;20031;-60
2021/01/27 10:01:24;;;;;;;10.13;7.18;;;;;;;;;;5128033;27;20035;-61
2021/01/27 10:04:05;;;;;;;12.23;9.80;;;;;;;;;;5126525;27;20061;-60
2021/01/27 10:06:35;;;;;;;13.23;7.00;;;;;;;;;;5126528;27;20127;-61
2021/01/27 10:09:05;;;;;;;11.73;7.07;;;;;;;;;;5126766;27;20035;-61
2021/01/27 10:11:33;;;;;;;10.98;7.43;;;;;;;;;;5123643;27;20038;-61
2021/01/27 10:14:11;;;;;;;10.88;7.15;;;;;;;;;;5127280;27;20047;-61
2021/01/27 10:17:12;;;;;;;13.90;7.72;;;;;;;;;;5125597;27;20523;-61
2021/01/27 10:19:51;;;;;;;8.98;7.32;;;;;;;;;;5042330;28;20028;-61
2021/01/27 10:22:28;;;;;;;8.00;6.65;;;;;;;;;;5115531;27;20097;-61
2021/01/27 10:24:55;;;;;;;9.25;7.05;;;;;;;;;;5128188;27;20035;-61
2021/01/27 10:27:38;;;;;;;9.27;7.10;;;;;;;;;;5127682;27;20031;-60
2021/01/27 10:30:24;;;;;;;10.73;7.97;;;;;;;;;;5085144;28;20059;-61
2021/01/27 10:32:49;;;;;;;9.38;7.30;;;;;;;;;;5117427;27;20435;-60
2021/01/27 10:35:24;;;;;;;12.20;7.70;;;;;;;;;;5116148;27;20055;-61
2021/01/27 10:38:04;;;;;;;9.52;6.75;;;;;;;;;;5110633;27;20042;-61
2021/01/27 10:40:32;;;;;;;9.93;7.47;;;;;;;;;;5109813;27;20156;-61
2021/01/27 10:43:24;;;;;;;10.18;7.93;;;;;;;;;;5113511;27;20035;-61
2021/01/27 10:45:50;;;;;;;8.98;6.47;;;;;;;;;;5109872;27;20103;-60
2021/01/27 10:48:22;;;;;;;11.40;7.22;;;;;;;;;;5125162;27;20498;-60
2021/01/27 10:51:02;;;;;;;11.05;8.18;;;;;;;;;;5124003;27;20043;-60
2021/01/27 10:53:29;;;;;;;13.35;7.35;;;;;;;;;;5126834;27;20463;-60
2021/01/27 10:55:56;;;;;;;11.13;7.75;;;;;;;;;;5108580;27;20480;-61
2021/01/27 10:58:22;;;;;;;12.27;8.15;;;;;;;;;;5126236;27;20512;-61
2021/01/27 11:00:47;;;;;;;9.77;7.03;;;;;;;;;;5128243;27;20031;-61
2021/01/27 11:03:14;;;;;;;9.88;7.43;;;;;;;;;;5127075;27;20751;-61
2021/01/27 11:05:40;;;;;;;10.55;7.38;;;;;;;;;;5127054;27;20367;-60
2021/01/27 11:08:10;;;;;;;9.63;7.05;;;;;;;;;;5128218;27;20042;-61
2021/01/27 11:10:35;;;;;;;11.10;7.90;;;;;;;;;;5126468;27;20111;-61
2021/01/27 11:13:01;;;;;;;10.27;7.97;;;;;;;;;;5123844;27;20031;-60
2021/01/27 11:15:26;;;;;;;9.65;7.22;;;;;;;;;;5110661;27;20065;-61
2021/01/27 11:17:51;;;;;;;18.42;7.45;;;;;;;;;;5113080;28;20057;-61
2021/01/27 11:20:25;;;;;;;11.90;7.95;;;;;;;;;;5125482;27;20027;-61
2021/01/27 11:22:51;;;;;;;9.23;7.43;;;;;;;;;;5123550;27;20055;-61
2021/01/27 11:25:18;;;;;;;9.40;7.93;;;;;;;;;;5122326;27;20371;-61
2021/01/27 11:27:45;;;;;;;11.02;7.70;;;;;;;;;;5127018;27;20042;-58
2021/01/27 11:30:12;;;;;;;13.07;7.85;;;;;;;;;;5125161;27;20035;-60
2021/01/27 11:32:37;;;;;;;12.40;7.15;;;;;;;;;;5124028;27;20045;-61
2021/01/27 11:35:04;;;;;;;10.50;8.00;;;;;;;;;;5114457;27;20031;-61
2021/01/27 11:37:29;;;;;;;8.93;7.45;;;;;;;;;;5118808;27;20067;-60
2021/01/27 11:39:54;;;;;;;9.15;7.85;;;;;;;;;;5117326;27;20482;-61
2021/01/27 11:42:20;;;;;;;9.57;7.97;;;;;;;;;;5123658;27;20034;-60
2021/01/27 11:44:45;;;;;;;10.52;8.18;;;;;;;;;;5127907;27;20042;-60
2021/01/27 11:47:10;;;;;;;9.88;8.52;;;;;;;;;;5131526;27;20031;-61
2021/01/27 11:49:36;;;;;;;12.13;9.00;;;;;;;;;;5128230;27;20058;-60
2021/01/27 11:52:04;;;;;;;11.30;8.57;;;;;;;;;;5122500;27;20372;-60
2021/01/27 11:54:30;;;;;;;10.20;8.73;;;;;;;;;;5131455;27;20035;-61
2021/01/27 11:56:55;;;;;;;11.10;8.38;;;;;;;;;;5116534;27;20035;-60
2021/01/27 11:59:20;;;;;;;9.82;8.57;;;;;;;;;;5122850;27;20360;-60
2021/01/27 12:01:45;;;;;;;9.98;8.70;;;;;;;;;;5130739;27;20360;-60
2021/01/27 12:04:11;;;;;;;11.40;9.15;;;;;;;;;;5132628;27;20118;-60
2021/01/27 12:06:36;;;;;;;11.73;9.32;;;;;;;;;;5133391;27;20067;-60
2021/01/27 12:09:02;;;;;;;10.55;9.23;;;;;;;;;;5115435;27;20409;-60
2021/01/27 12:11:27;;;;;;;13.40;8.57;;;;;;;;;;5113921;27;20126;-61
2021/01/27 12:13:52;;;;;;;11.13;8.68;;;;;;;;;;5132647;27;20031;-60
2021/01/27 12:16:18;;;;;;;11.43;8.95;;;;;;;;;;5133447;27;20031;-61
2021/01/27 12:18:43;;;;;;;10.85;8.98;;;;;;;;;;5130186;27;20079;-60
2021/01/27 12:21:09;;;;;;;13.00;9.55;;;;;;;;;;5115552;27;20077;-61
2021/01/27 12:23:35;;;;;;;10.95;9.00;;;;;;;;;;5133120;27;20039;-61
2021/01/27 12:26:00;;;;;;;10.02;8.85;;;;;;;;;;5134226;27;20038;-61
2021/01/27 12:28:25;;;;;;;10.98;9.48;;;;;;;;;;5133142;27;20620;-60
2021/01/27 12:30:51;;;;;;;14.82;12.13;;;;;;;;;;5133327;27;20428;-60
2021/01/27 12:33:16;;;;;;;19.42;12.50;;;;;;;;;;5132356;27;20038;-61
2021/01/27 12:35:41;;;;;;;14.30;12.35;;;;;;;;;;5132838;27;20055;-60
2021/01/27 12:38:07;;;;;;;15.07;12.52;;;;;;;;;;5130029;27;20073;-61
2021/01/27 12:40:32;;;;;;;19.65;12.25;;;;;;;;;;5133386;27;20042;-60
2021/01/27 12:42:58;;;;;;;13.40;12.00;;;;;;;;;;5133231;27;20039;-60
2021/01/27 12:45:25;;;;;;;13.63;11.27;;;;;;;;;;5129963;27;20115;-60
2021/01/27 12:47:53;;;;;;;12.55;10.23;;;;;;;;;;5113730;27;20123;-61
2021/01/27 12:50:19;;;;;;;14.35;10.25;;;;;;;;;;5120113;27;20038;-60
2021/01/27 12:52:44;;;;;;;11.85;9.63;;;;;;;;;;5124114;27;20438;-60
2021/01/27 12:55:13;;;;;;;10.43;9.32;;;;;;;;;;5125796;27;20035;-61
2021/01/27 12:57:40;;;;;;;14.70;8.88;;;;;;;;;;5127874;27;20050;-60
2021/01/27 13:00:08;;;;;;;14.75;12.85;;;;;;;;;;5130174;27;20126;-60
2021/01/27 13:02:33;;;;;;;11.55;10.32;;;;;;;;;;5130258;27;20035;-61
2021/01/27 13:04:59;;;;;;;11.30;10.13;;;;;;;;;;5129267;27;20468;-60
2021/01/27 13:07:24;;;;;;;14.30;9.65;;;;;;;;;;5130168;27;20125;-61
2021/01/27 13:09:50;;;;;;;10.77;9.50;;;;;;;;;;5130073;27;20039;-60
2021/01/27 13:12:16;;;;;;;11.77;9.07;;;;;;;;;;5109399;27;20049;-60
2021/01/27 13:14:41;;;;;;;10.95;9.32;;;;;;;;;;5107812;27;20044;-60
2021/01/27 13:17:06;;;;;;;14.55;10.35;;;;;;;;;;5126788;27;20409;-61
2021/01/27 13:19:31;;;;;;;11.02;9.65;;;;;;;;;;5131480;27;20447;-61
2021/01/27 13:21:57;;;;;;;10.55;8.90;;;;;;;;;;5130464;27;20336;-61
2021/01/27 13:24:22;;;;;;;9.40;8.25;;;;;;;;;;5131311;27;20471;-60
2021/01/27 13:26:48;;;;;;;9.45;8.45;;;;;;;;;;5131722;27;20038;-60
2021/01/27 13:29:13;;;;;;;10.55;9.45;;;;;;;;;;5131277;27;20110;-61
2021/01/27 13:31:39;;;;;;;17.17;13.55;;;;;;;;;;5130529;27;20054;-60
2021/01/27 13:34:04;;;;;;;12.07;9.80;;;;;;;;;;5131746;27;20114;-60
2021/01/27 13:36:30;;;;;;;11.25;9.13;;;;;;;;;;5131783;27;20042;-60
2021/01/27 13:38:55;;;;;;;11.00;8.90;;;;;;;;;;5132712;27;20092;-60
2021/01/27 13:41:20;;;;;;;10.63;8.57;;;;;;;;;;5110416;27;20437;-60
2021/01/27 13:43:46;;;;;;;12.57;10.18;;;;;;;;;;5130557;27;20043;-60
2021/01/27 13:46:11;;;;;;;13.77;9.68;;;;;;;;;;5131000;27;20030;-60
2021/01/27 13:48:37;;;;;;;10.95;9.73;;;;;;;;;;5131882;27;20080;-60
2021/01/27 13:51:02;;;;;;;12.27;9.88;;;;;;;;;;5131207;27;20043;-60
2021/01/27 13:53:28;;;;;;;11.98;10.73;;;;;;;;;;5131937;27;20446;-60
2021/01/27 13:55:53;;;;;;;12.02;10.73;;;;;;;;;;5132017;27;20110;-60
2021/01/27 13:58:19;;;;;;;11.90;10.73;;;;;;;;;;5129824;27;20039;-61
2021/01/27 14:00:44;;;;;;;12.43;10.25;;;;;;;;;;5132434;27;20496;-61
2021/01/27 14:03:09;;;;;;;12.57;10.63;;;;;;;;;;5132041;27;20405;-61
2021/01/27 14:05:35;;;;;;;12.80;11.38;;;;;;;;;;5128027;27;20420;-61
2021/01/27 14:08:01;;;;;;;11.98;10.68;;;;;;;;;;5130270;27;20031;-61
2021/01/27 14:10:30;;;;;;;11.30;10.20;;;;;;;;;;5130444;27;20038;-61
2021/01/27 14:12:56;;;;;;;12.35;11.05;;;;;;;;;;5130716;27;20360;-61
2021/01/27 14:15:24;;;;;;;13.68;11.52;;;;;;;;;;5132093;27;20023;-60
2021/01/27 14:17:49;;;;;;;15.20;11.27;;;;;;;;;;5128824;27;20079;-61
2021/01/27 14:20:18;;;;;;;13.07;11.75;;;;;;;;;;5112630;27;20050;-61
2021/01/27 14:22:44;;;;;;;13.40;11.00;;;;;;;;;;5128335;27;20027;-61
2021/01/27 14:25:15;;;;;;;13.82;12.15;;;;;;;;;;5129415;27;20195;-61
2021/01/27 14:27:42;;;;;;;13.40;11.80;;;;;;;;;;5130885;27;20041;-60
2021/01/27 14:30:10;;;;;;;13.45;10.63;;;;;;;;;;5131476;27;20038;-61
2021/01/27 14:32:36;;;;;;;13.05;11.43;;;;;;;;;;5130482;27;20529;-61
2021/01/27 14:35:02;;;;;;;13.77;11.10;;;;;;;;;;5116868;27;20046;-61
2021/01/27 14:37:28;;;;;;;11.98;10.73;;;;;;;;;;5112219;27;20043;-61
2021/01/27 14:39:53;;;;;;;13.93;10.82;;;;;;;;;;5110588;27;20035;-61
2021/01/27 14:42:18;;;;;;;15.75;11.00;;;;;;;;;;5111915;27;20081;-62
2021/01/27 14:44:44;;;;;;;14.90;10.43;;;;;;;;;;5109109;27;20042;-60
2021/01/27 14:47:11;;;;;;;14.30;11.55;;;;;;;;;;5110405;28;20077;-60
2021/01/27 14:49:36;;;;;;;11.25;9.98;;;;;;;;;;5125337;27;20045;-60
2021/01/27 14:52:02;;;;;;;13.80;10.60;;;;;;;;;;5130990;27;20035;-60
2021/01/27 14:54:27;;;;;;;11.55;9.70;;;;;;;;;;5130085;27;20027;-60
2021/01/27 14:56:53;;;;;;;10.25;8.27;;;;;;;;;;5129548;27;20065;-61
2021/01/27 14:59:18;;;;;;;12.93;9.25;;;;;;;;;;5130853;27;20035;-60